createdAt,value
2018-09-11T00:04:49.993Z,19.20
2018-09-11T00:09:53.885Z,19.20
2018-09-11T00:14:57.850Z,19.20
2018-09-11T00:20:01.677Z,19.10
2018-09-11T00:25:05.486Z,19.10
2018-09-11T00:30:09.157Z,19.10
2018-09-11T00:35:12.963Z,19.10
2018-09-11T00:40:16.735Z,19.10
2018-09-11T00:45:20.535Z,19.10
2018-09-11T00:50:24.253Z,19.10
2018-09-11T00:55:28.068Z,19.10
2018-09-11T01:00:31.833Z,19.00
2018-09-11T01:05:35.570Z,19.00
2018-09-11T01:10:39.427Z,19.00
2018-09-11T01:15:43.741Z,19.00
2018-09-11T01:20:47.503Z,19.00
2018-09-11T01:25:51.356Z,19.00
2018-09-11T01:30:55.198Z,19.00
2018-09-11T01:35:59.005Z,19.00
2018-09-11T01:41:03.114Z,19.00
2018-09-11T01:46:06.990Z,19.00
2018-09-11T01:51:10.580Z,19.00
2018-09-11T01:56:14.524Z,19.00
2018-09-11T02:01:18.499Z,18.90
2018-09-11T02:06:22.395Z,18.90
2018-09-11T02:11:26.259Z,18.90
2018-09-11T02:16:30.044Z,18.90
2018-09-11T02:21:33.883Z,18.90
2018-09-11T02:26:37.665Z,18.90
2018-09-11T02:31:41.654Z,18.90
2018-09-11T02:36:45.444Z,18.90
2018-09-11T02:41:49.404Z,18.90
2018-09-11T02:46:53.160Z,18.90
2018-09-11T02:51:57.531Z,18.90
2018-09-11T02:57:01.440Z,18.80
2018-09-11T03:02:05.372Z,18.80
2018-09-11T03:07:09.259Z,18.80
2018-09-11T03:12:13.482Z,18.80
2018-09-11T03:17:17.378Z,18.80
2018-09-11T03:22:21.304Z,18.80
2018-09-11T03:27:25.118Z,18.80
2018-09-11T03:32:28.800Z,18.70
2018-09-11T03:37:32.566Z,18.70
2018-09-11T03:42:36.345Z,18.70
2018-09-11T03:47:40.473Z,18.70
2018-09-11T03:52:44.244Z,18.70
2018-09-11T03:58:07.054Z,18.70
2018-09-11T04:03:11.314Z,18.70
2018-09-11T04:19:31.291Z,18.60
2018-09-11T04:24:35.304Z,18.60
2018-09-11T04:29:39.270Z,18.60
2018-09-11T04:34:43.217Z,18.60
2018-09-11T04:39:46.938Z,18.60
2018-09-11T04:44:50.741Z,18.60
2018-09-11T04:49:54.582Z,18.70
2018-09-11T04:54:58.254Z,18.70
2018-09-11T05:00:01.879Z,18.70
2018-09-11T05:05:05.524Z,18.70
2018-09-11T05:10:09.165Z,18.70
2018-09-11T05:15:13.291Z,18.70
2018-09-11T05:20:17.739Z,18.70
2018-09-11T05:25:21.633Z,18.70
2018-09-11T05:30:27.164Z,18.70
2018-09-11T05:35:31.260Z,18.70
2018-09-11T06:18:50.366Z,18.80
2018-09-11T06:23:54.604Z,18.90
2018-09-11T06:29:04.123Z,18.90
2018-09-11T06:34:08.424Z,18.90
2018-09-11T06:39:12.328Z,18.90
2018-09-11T06:44:16.241Z,18.90
2018-09-11T06:49:20.146Z,18.90
2018-09-11T06:54:23.959Z,18.90
2018-09-11T06:59:28.055Z,18.90
2018-09-11T07:04:31.827Z,18.90
2018-09-11T07:09:35.565Z,19.00
2018-09-11T07:14:39.478Z,19.00
2018-09-11T07:19:43.683Z,19.00
2018-09-11T07:24:47.955Z,19.10
2018-09-11T07:29:52.181Z,19.10
2018-09-11T07:34:56.354Z,19.20
2018-09-11T07:40:00.527Z,19.20
2018-09-11T07:45:04.612Z,19.30
2018-09-11T07:50:08.370Z,19.40
2018-09-11T07:55:12.540Z,19.50
2018-09-11T08:00:16.995Z,19.60
2018-09-11T08:05:20.830Z,19.60
2018-09-11T08:10:25.029Z,19.70
2018-09-11T08:15:28.892Z,19.70
2018-09-11T08:20:32.739Z,19.80
2018-09-11T08:25:36.558Z,19.90
2018-09-11T08:30:40.478Z,20.00
2018-09-11T08:35:44.257Z,20.10
2018-09-11T08:40:48.212Z,20.10
2018-09-11T08:45:52.045Z,20.20
2018-09-11T08:50:55.749Z,20.30
2018-09-11T08:55:59.482Z,20.50
2018-09-11T09:01:03.456Z,20.60
2018-09-11T09:06:07.815Z,20.70
2018-09-11T09:11:11.524Z,20.80
2018-09-11T09:16:15.754Z,20.80
2018-09-11T09:21:19.805Z,20.90
2018-09-11T09:26:23.481Z,20.90
2018-09-11T09:31:27.100Z,21.10
2018-09-11T09:36:30.805Z,21.20
2018-09-11T09:41:34.663Z,21.30
2018-09-11T09:46:38.419Z,21.40
2018-09-11T09:51:42.193Z,21.50
2018-09-11T09:56:46.287Z,21.60
2018-09-11T10:01:55.586Z,21.70
2018-09-11T10:06:59.267Z,21.80
2018-09-11T10:12:03.214Z,21.90
2018-09-11T10:33:30.686Z,22.30
2018-09-11T10:49:30.459Z,22.60
2018-09-11T10:54:34.386Z,22.80
2018-09-11T10:59:38.463Z,22.90
2018-09-11T11:04:42.320Z,23.00
2018-09-11T11:09:46.300Z,23.20
2018-09-11T11:14:50.231Z,23.30
2018-09-11T11:19:54.486Z,23.50
2018-09-11T11:24:58.073Z,23.70
2018-09-11T11:30:01.861Z,23.80
2018-09-11T11:35:05.731Z,24.00
2018-09-11T11:40:09.488Z,24.20
2018-09-11T11:45:13.353Z,24.30
2018-09-11T11:50:16.971Z,24.40
2018-09-11T11:55:20.604Z,24.50
2018-09-11T12:00:24.384Z,24.70
2018-09-11T12:05:28.155Z,24.80
2018-09-11T12:10:32.273Z,24.90
2018-09-11T12:15:36.176Z,25.00
2018-09-11T12:20:40.294Z,25.10
2018-09-11T12:25:44.367Z,25.30
2018-09-11T12:30:48.339Z,25.50
2018-09-11T12:35:52.008Z,25.50
2018-09-11T12:40:56.011Z,25.60
2018-09-11T12:45:59.890Z,25.80
2018-09-11T12:51:03.488Z,25.90
2018-09-11T12:56:07.303Z,26.00
2018-09-11T13:01:10.998Z,26.10
2018-09-11T13:22:44.651Z,26.60
2018-09-11T13:27:48.825Z,26.60
2018-09-11T13:32:52.992Z,26.70
2018-09-11T13:37:56.831Z,26.80
2018-09-11T13:43:00.553Z,26.90
2018-09-11T13:48:04.247Z,26.90
2018-09-11T13:53:08.553Z,27.10
2018-09-11T13:58:12.432Z,27.20
2018-09-11T14:03:16.281Z,27.30
2018-09-11T14:08:19.987Z,27.30
2018-09-11T14:13:23.709Z,27.40
2018-09-11T14:23:55.689Z,27.50
2018-09-11T14:50:53.747Z,27.80
2018-09-11T14:55:57.620Z,27.80
2018-09-11T15:01:01.978Z,27.90
2018-09-11T15:06:06.200Z,27.80
2018-09-11T15:11:09.964Z,27.90
2018-09-11T15:16:13.880Z,27.90
2018-09-11T15:21:17.743Z,27.90
2018-09-11T15:26:21.588Z,27.80
2018-09-11T15:31:25.433Z,27.80
2018-09-11T15:36:29.623Z,27.80
2018-09-11T15:41:33.584Z,27.70
2018-09-11T15:46:37.420Z,27.70
2018-09-11T15:51:41.405Z,27.70
2018-09-11T15:56:45.438Z,27.70
2018-09-11T16:01:49.257Z,27.70
2018-09-11T16:06:53.120Z,27.60
2018-09-11T16:12:00.418Z,27.40
2018-09-11T16:17:04.350Z,27.30
2018-09-11T16:22:08.626Z,27.20
2018-09-11T16:27:12.545Z,27.00
2018-09-11T16:32:16.378Z,26.90
2018-09-11T16:37:20.547Z,26.80
2018-09-11T16:42:24.528Z,26.70
2018-09-11T16:47:28.450Z,26.60
2018-09-11T16:52:32.494Z,26.50
2018-09-11T16:57:36.457Z,26.40
2018-09-11T17:02:40.302Z,26.30
2018-09-11T17:13:15.007Z,26.20
2018-09-11T17:18:19.424Z,26.10
2018-09-11T17:23:23.304Z,26.00
2018-09-11T17:28:27.083Z,25.90
2018-09-11T17:33:30.920Z,25.90
2018-09-11T17:38:34.598Z,25.80
2018-09-11T17:43:38.224Z,25.80
2018-09-11T17:48:42.366Z,25.70
2018-09-11T17:53:46.331Z,25.60
2018-09-11T18:04:42.034Z,25.40
2018-09-11T18:21:05.464Z,24.90
2018-09-11T18:26:09.550Z,24.70
2018-09-11T18:31:13.377Z,24.50
2018-09-11T18:36:17.940Z,24.30
2018-09-11T18:41:21.867Z,24.10
2018-09-11T18:46:25.799Z,23.90
2018-09-11T18:51:29.635Z,23.80
2018-09-11T18:56:33.773Z,23.60
2018-09-11T19:01:37.541Z,23.50
2018-09-11T19:06:41.397Z,23.30
2018-09-11T19:11:45.264Z,23.20
